Time;durP1;ratioP1;P1;durP2;ratioP2;P2;SDS_P1;SDS_P2;PMS_P1;PMS_P2;Temp;Humidity;BMP_temperature;BMP_pressure;BME280_temperature;BME280_humidity;BME280_pressure;Samples;Min_cycle;Max_cycle;Signal;HPM_P1;HPM_P2
2023/05/11 00:00:24;;;;;;;15.70;8.40;;;;;;;7.89;53.27;101371.70;104057;1270;61618;-45
2023/05/11 00:02:51;;;;;;;8.10;4.10;;;;;;;7.88;53.26;101372.12;103951;1263;59709;-45
2023/05/11 00:05:18;;;;;;;11.10;7.60;;;;;;;7.85;53.29;101372.96;105957;1267;66330;-47
2023/05/11 00:07:45;;;;;;;15.60;4.10;;;;;;;7.83;53.71;101372.05;104096;1266;64001;-47
2023/05/11 00:10:12;;;;;;;12.30;7.70;;;;;;;7.81;54.14;101372.14;105444;1264;66162;-46
2023/05/11 00:12:39;;;;;;;7.80;3.30;;;;;;;7.79;54.42;101373.84;104860;1264;59654;-45
2023/05/11 00:15:06;;;;;;;12.90;7.80;;;;;;;7.75;54.68;101371.56;105181;1263;61641;-45
2023/05/11 00:17:33;;;;;;;13.70;9.00;;;;;;;7.72;54.85;101371.95;105156;1266;66888;-45
2023/05/11 00:20:00;;;;;;;8.00;3.60;;;;;;;7.68;55.08;101375.43;104561;1265;63147;-46
2023/05/11 00:22:27;;;;;;;10.40;7.60;;;;;;;7.62;55.03;101370.98;104527;1264;65986;-46
2023/05/11 00:24:54;;;;;;;8.90;3.70;;;;;;;7.56;55.15;101370.80;104619;1264;60019;-48
2023/05/11 00:27:21;;;;;;;14.70;8.20;;;;;;;7.48;55.48;101375.58;108416;1263;57996;-46
2023/05/11 00:29:48;;;;;;;7.50;3.00;;;;;;;7.43;55.58;101374.61;104610;1264;65471;-46
2023/05/11 00:32:15;;;;;;;11.00;7.20;;;;;;;7.47;55.72;101374.42;104683;1263;63356;-46
2023/05/11 00:34:42;;;;;;;8.00;2.80;;;;;;;7.56;55.76;101374.15;104624;1264;66427;-46
2023/05/11 00:37:08;;;;;;;8.80;6.50;;;;;;;7.62;55.79;101375.73;104619;1266;59893;-47
2023/05/11 00:39:39;;;;;;;14.00;8.00;;;;;;;7.69;55.77;101376.45;104705;1268;60358;-44
2023/05/11 00:42:06;;;;;;;8.80;3.40;;;;;;;7.72;55.72;101374.38;105873;1264;65751;-44
2023/05/11 00:44:33;;;;;;;13.00;7.40;;;;;;;7.72;55.89;101374.02;104644;1267;62731;-45
2023/05/11 00:47:00;;;;;;;12.90;6.80;;;;;;;7.71;55.78;101375.48;106018;1266;66006;-46
2023/05/11 00:49:27;;;;;;;9.50;4.60;;;;;;;7.71;55.60;101370.75;105682;1270;59526;-45
2023/05/11 00:51:56;;;;;;;11.10;7.90;;;;;;;7.71;55.31;101371.61;105144;1254;59631;-45
2023/05/11 00:54:23;;;;;;;12.50;8.30;;;;;;;7.70;55.13;101370.27;105264;1259;66520;-45
2023/05/11 00:56:50;;;;;;;10.90;4.60;;;;;;;7.68;55.09;101370.02;105123;1254;63783;-45
2023/05/11 00:59:17;;;;;;;11.60;7.70;;;;;;;7.65;55.02;101371.41;105223;1260;66316;-45
2023/05/11 01:01:44;;;;;;;12.90;8.90;;;;;;;7.62;54.92;101369.30;105366;1260;60576;-46
2023/05/11 01:04:12;;;;;;;8.40;3.70;;;;;;;7.58;54.91;101369.83;105276;1254;59660;-44
2023/05/11 01:06:50;;;;;;;12.70;8.20;;;;;;;7.54;54.95;101370.21;105596;1254;66605;-45
2023/05/11 01:09:43;;;;;;;10.40;4.40;;;;;;;7.52;54.97;101371.18;105073;1257;63846;-45
2023/05/11 01:12:14;;;;;;;8.80;3.70;;;;;;;7.51;55.04;101369.30;105203;1257;68793;-45
2023/05/11 01:14:57;;;;;;;15.00;8.60;;;;;;;7.51;55.09;101371.59;107055;1254;59986;-45
2023/05/11 01:17:37;;;;;;;11.30;8.10;;;;;;;7.51;55.12;101372.30;105262;1254;59688;-45
2023/05/11 01:20:11;;;;;;;7.70;3.60;;;;;;;7.52;55.01;101371.04;107083;1254;65296;-45
2023/05/11 01:22:56;;;;;;;14.10;9.10;;;;;;;7.52;55.01;101375.23;105205;1254;63553;-45
2023/05/11 01:25:52;;;;;;;8.70;4.10;;;;;;;7.52;55.17;101376.09;105177;1257;65904;-45
2023/05/11 01:28:54;;;;;;;9.40;4.10;;;;;;;7.52;55.35;101378.01;104744;1256;61582;-45
2023/05/11 01:31:21;;;;;;;17.60;9.10;;;;;;;7.52;55.47;101378.69;104377;1265;59278;-44
2023/05/11 01:33:53;;;;;;;10.30;4.50;;;;;;;7.53;55.42;101378.98;104760;1260;67266;-44
2023/05/11 01:36:20;;;;;;;11.50;8.60;;;;;;;7.54;55.45;101379.30;106549;1259;63780;-49
2023/05/11 01:38:46;;;;;;;8.60;3.90;;;;;;;7.55;55.34;101379.21;104830;1259;74105;-44
2023/05/11 01:41:15;;;;;;;12.10;8.20;;;;;;;7.61;55.24;101377.70;104563;1257;60610;-45
2023/05/11 01:43:43;;;;;;;5.80;2.10;;;;;;;7.71;54.80;101379.48;104648;1260;60524;-43
2023/05/11 01:46:11;;;;;;;13.00;8.50;;;;;;;7.80;54.09;101381.98;105244;1256;66996;-44
2023/05/11 01:48:40;;;;;;;11.40;7.70;;;;;;;7.86;53.30;101380.98;105351;1260;62825;-44
2023/05/11 01:51:07;;;;;;;12.30;7.90;;;;;;;7.89;52.79;101379.40;106102;1259;66001;-45
2023/05/11 01:53:35;;;;;;;12.10;8.30;;;;;;;7.91;52.30;101381.07;104736;1257;60532;-45
2023/05/11 01:56:03;;;;;;;7.60;3.80;;;;;;;7.93;52.21;101383.92;104792;1255;60616;-45
2023/05/11 01:58:29;;;;;;;12.90;7.80;;;;;;;7.94;52.31;101383.15;104651;1260;67522;-45
2023/05/11 02:00:59;;;;;;;14.50;9.30;;;;;;;7.96;52.37;101382.17;104816;1259;64081;-45
2023/05/11 02:03:26;;;;;;;9.90;4.00;;;;;;;8.05;52.36;101387.48;104712;1261;65094;-44
2023/05/11 02:05:53;;;;;;;12.70;8.70;;;;;;;8.07;52.24;101381.45;104842;1254;60514;-45
2023/05/11 02:08:20;;;;;;;10.20;3.70;;;;;;;8.05;52.20;101381.38;106027;1260;60470;-45
2023/05/11 02:10:47;;;;;;;13.00;8.90;;;;;;;8.02;52.10;101387.63;104988;1260;68116;-44
2023/05/11 02:13:14;;;;;;;13.00;9.80;;;;;;;8.02;52.13;101388.70;104664;1259;64069;-45
2023/05/11 02:15:41;;;;;;;11.80;5.10;;;;;;;8.03;52.32;101389.35;104755;1257;67302;-45
2023/05/11 02:18:12;;;;;;;14.30;9.50;;;;;;;8.03;52.49;101391.95;106389;1254;60901;-45
2023/05/11 02:20:40;;;;;;;8.80;4.50;;;;;;;8.05;52.56;101393.09;105125;1254;60626;-44
2023/05/11 02:23:08;;;;;;;14.10;9.50;;;;;;;8.06;52.71;101391.61;108608;1257;67737;-44
2023/05/11 02:25:39;;;;;;;7.50;4.30;;;;;;;8.08;52.92;101393.77;105172;1254;63441;-45
2023/05/11 02:28:07;;;;;;;13.70;9.60;;;;;;;8.08;53.01;101397.44;105438;1258;74886;-46
2023/05/11 02:30:38;;;;;;;12.80;9.50;;;;;;;8.07;53.26;101394.35;105725;1256;60531;-46
2023/05/11 02:33:05;;;;;;;16.60;9.90;;;;;;;8.06;53.46;101393.75;105237;1257;60500;-46
2023/05/11 02:35:37;;;;;;;9.30;5.00;;;;;;;8.05;53.69;101395.02;105677;1258;67790;-44
2023/05/11 02:38:04;;;;;;;20.50;9.70;;;;;;;8.06;53.91;101398.10;105228;1260;62508;-45
2023/05/11 02:40:33;;;;;;;17.20;9.80;;;;;;;8.09;53.93;101401.08;105153;1254;65972;-46
2023/05/11 02:43:08;;;;;;;9.90;5.40;;;;;;;8.12;54.02;101401.45;107230;1255;60437;-44
2023/05/11 02:45:35;;;;;;;15.70;9.80;;;;;;;8.12;54.24;101403.70;105330;1254;60453;-48
2023/05/11 02:48:06;;;;;;;15.70;9.70;;;;;;;8.14;54.40;101402.19;104444;1254;66490;-46
2023/05/11 02:50:36;;;;;;;9.60;4.30;;;;;;;8.19;54.49;101401.02;104917;1254;63526;-45
2023/05/11 02:53:06;;;;;;;14.80;9.20;;;;;;;8.29;54.48;101398.44;105598;1260;66023;-45
2023/05/11 02:55:33;;;;;;;7.60;3.00;;;;;;;8.43;54.31;101399.13;105708;1260;60668;-45
2023/05/11 02:58:00;;;;;;;15.20;8.20;;;;;;;8.55;54.07;101401.06;105192;1259;59908;-45
2023/05/11 03:00:27;;;;;;;12.10;9.00;;;;;;;8.67;53.80;101400.77;105372;1260;66770;-47
2023/05/11 03:02:55;;;;;;;15.30;9.60;;;;;;;8.77;53.63;101400.17;106008;1260;63868;-46
2023/05/11 03:05:23;;;;;;;11.60;5.10;;;;;;;8.85;53.49;101402.20;105235;1254;67765;-46
2023/05/11 03:07:51;;;;;;;14.10;9.70;;;;;;;8.91;53.25;101405.01;105356;1257;60532;-45
2023/05/11 03:10:18;;;;;;;16.70;10.10;;;;;;;8.93;53.08;101406.27;106431;1257;60450;-45
2023/05/11 03:12:45;;;;;;;18.10;9.70;;;;;;;8.95;52.96;101407.59;105368;1259;67287;-46
2023/05/11 03:15:13;;;;;;;14.90;9.90;;;;;;;8.96;52.92;101411.38;104979;1254;64133;-45
2023/05/11 03:17:40;;;;;;;14.20;9.80;;;;;;;8.97;52.82;101411.84;105187;1255;65940;-46
2023/05/11 03:20:07;;;;;;;7.40;4.20;;;;;;;8.99;52.71;101416.96;104956;1258;60508;-45
2023/05/11 03:22:35;;;;;;;13.10;9.60;;;;;;;8.99;52.83;101425.55;104946;1253;61322;-45
2023/05/11 03:25:02;;;;;;;13.50;9.40;;;;;;;9.00;53.10;101425.14;104915;1258;67602;-46
2023/05/11 03:27:29;;;;;;;15.00;10.20;;;;;;;9.03;53.07;101421.30;104938;1257;63890;-50
2023/05/11 03:29:56;;;;;;;14.80;9.50;;;;;;;9.06;52.75;101425.34;104808;1259;66212;-46
2023/05/11 03:32:23;;;;;;;13.50;9.60;;;;;;;9.09;52.42;101431.77;105276;1256;60459;-45
2023/05/11 03:34:51;;;;;;;13.60;9.30;;;;;;;9.14;52.36;101433.64;105863;1259;60454;-45
2023/05/11 03:37:18;;;;;;;14.90;9.30;;;;;;;9.20;52.24;101431.02;105871;1254;67377;-46
2023/05/11 03:39:47;;;;;;;14.60;9.80;;;;;;;9.25;52.08;101430.20;104850;1254;63787;-45
2023/05/11 03:42:14;;;;;;;14.20;9.70;;;;;;;9.29;51.69;101430.35;105894;1256;65116;-46
2023/05/11 03:44:42;;;;;;;17.60;10.50;;;;;;;9.32;51.52;101435.09;104674;1255;60557;-45
2023/05/11 03:47:09;;;;;;;13.90;9.50;;;;;;;9.33;51.36;101436.92;104829;1257;60453;-45
2023/05/11 03:49:36;;;;;;;15.30;9.80;;;;;;;9.30;51.33;101438.30;104817;1257;67538;-44
2023/05/11 03:52:04;;;;;;;10.90;4.50;;;;;;;9.26;51.48;101443.10;104752;1260;63741;-45
2023/05/11 03:54:31;;;;;;;15.70;9.50;;;;;;;9.23;51.66;101442.78;109106;1251;65123;-49
2023/05/11 03:56:58;;;;;;;16.50;10.20;;;;;;;9.18;51.82;101442.52;109106;1253;59335;-45
2023/05/11 03:59:25;;;;;;;17.40;10.40;;;;;;;9.13;52.03;101447.69;106530;1253;60305;-45
2023/05/11 04:01:52;;;;;;;18.10;10.10;;;;;;;9.10;52.23;101448.35;104925;1254;67204;-45
2023/05/11 04:04:20;;;;;;;13.80;9.80;;;;;;;9.14;52.20;101448.33;104748;1259;64100;-45
2023/05/11 04:06:47;;;;;;;15.00;9.70;;;;;;;9.21;52.17;101451.62;105814;1259;65001;-45
2023/05/11 04:09:19;;;;;;;18.00;11.00;;;;;;;9.26;52.21;101452.38;104712;1251;60335;-45
2023/05/11 04:11:46;;;;;;;14.60;11.10;;;;;;;9.27;52.33;101451.42;104917;1257;60391;-44
2023/05/11 04:14:13;;;;;;;13.50;10.80;;;;;;;9.26;52.39;101454.46;104959;1254;67479;-46
2023/05/11 04:16:41;;;;;;;15.50;10.50;;;;;;;9.25;52.40;101457.69;104934;1251;63842;-46
2023/05/11 04:19:08;;;;;;;14.80;10.40;;;;;;;9.27;52.53;101461.27;109095;1256;64984;-46
2023/05/11 04:21:35;;;;;;;14.20;10.20;;;;;;;9.32;52.67;101463.10;109095;1253;58602;-47
2023/05/11 04:24:02;;;;;;;15.00;11.00;;;;;;;9.37;52.79;101468.89;109146;1256;58343;-46
2023/05/11 04:26:29;;;;;;;15.30;10.80;;;;;;;9.44;53.07;101462.52;109178;1257;67317;-49
2023/05/11 04:28:56;;;;;;;15.60;10.80;;;;;;;9.55;53.18;101465.62;109242;1252;63777;-46
2023/05/11 04:31:23;;;;;;;17.40;9.90;;;;;;;9.70;53.12;101463.83;109277;1253;65371;-47
2023/05/11 04:33:49;;;;;;;15.40;9.50;;;;;;;9.89;53.02;101467.09;108994;1256;60809;-46
2023/05/11 04:36:17;;;;;;;15.50;10.40;;;;;;;10.08;53.06;101469.45;105281;1253;60568;-46
2023/05/11 04:38:44;;;;;;;16.90;10.50;;;;;;;10.25;53.14;101468.59;105232;1253;66125;-45
2023/05/11 04:41:12;;;;;;;15.90;10.30;;;;;;;10.39;53.09;101469.19;105487;1257;62714;-45
2023/05/11 04:43:39;;;;;;;14.60;11.00;;;;;;;10.51;52.99;101471.74;104870;1254;66146;-45
2023/05/11 04:46:08;;;;;;;14.20;9.70;;;;;;;10.63;52.64;101469.08;105839;1254;60377;-46
2023/05/11 04:48:34;;;;;;;14.10;10.20;;;;;;;10.73;52.19;101466.88;105336;1254;60503;-45
2023/05/11 04:51:03;;;;;;;18.60;10.70;;;;;;;10.81;51.83;101464.45;105558;1252;67382;-44
2023/05/11 04:53:31;;;;;;;14.60;10.70;;;;;;;10.89;51.43;101464.63;109007;1254;73034;-45
2023/05/11 04:55:58;;;;;;;14.70;9.80;;;;;;;10.98;51.28;101465.65;106464;1254;66686;-45
2023/05/11 04:58:25;;;;;;;11.70;9.10;;;;;;;11.07;51.25;101471.05;104806;1254;60558;-44
2023/05/11 05:00:52;;;;;;;16.90;9.90;;;;;;;11.13;50.10;101469.75;105047;1257;60379;-45
2023/05/11 05:03:19;;;;;;;12.00;7.40;;;;;;;11.17;49.12;101474.07;104833;1251;67685;-45
2023/05/11 05:05:47;;;;;;;11.80;7.40;;;;;;;11.21;46.93;101474.55;108572;1254;62391;-45
2023/05/11 05:08:14;;;;;;;9.70;6.50;;;;;;;11.25;46.00;101473.02;105235;1254;66601;-45
2023/05/11 05:10:41;;;;;;;10.50;6.90;;;;;;;11.32;44.47;101470.63;106512;1254;60526;-44
2023/05/11 05:13:08;;;;;;;11.60;6.60;;;;;;;11.38;43.30;101471.68;105399;1254;60450;-44
2023/05/11 05:15:35;;;;;;;13.10;7.30;;;;;;;11.41;42.95;101474.44;105283;1251;67700;-44
2023/05/11 05:18:02;;;;;;;9.50;6.60;;;;;;;11.46;42.48;101476.55;105189;1254;63732;-43
2023/05/11 05:20:30;;;;;;;10.00;7.20;;;;;;;11.49;40.97;101477.61;107571;1253;66614;-44
2023/05/11 05:22:57;;;;;;;13.00;7.60;;;;;;;11.50;41.69;101477.20;105378;1259;60480;-44
2023/05/11 05:25:24;;;;;;;11.70;6.70;;;;;;;11.53;42.71;101476.30;105192;1259;60427;-44
2023/05/11 05:27:51;;;;;;;11.20;7.80;;;;;;;11.58;42.49;101475.13;105253;1254;67162;-45
2023/05/11 05:30:18;;;;;;;10.60;6.80;;;;;;;11.62;41.83;101475.17;105321;1257;62440;-45
2023/05/11 05:32:46;;;;;;;11.10;6.80;;;;;;;11.66;42.02;101478.20;105336;1257;66028;-44
2023/05/11 05:35:13;;;;;;;11.40;7.30;;;;;;;11.71;41.37;101477.55;105260;1251;63134;-45
2023/05/11 05:37:41;;;;;;;16.00;7.20;;;;;;;11.76;41.84;101477.96;105280;1259;60351;-44
2023/05/11 05:40:09;;;;;;;12.10;8.10;;;;;;;11.79;41.85;101481.77;105126;1251;67579;-46
2023/05/11 05:42:40;;;;;;;10.60;7.70;;;;;;;11.83;41.90;101483.41;105223;1258;63480;-47
2023/05/11 05:45:11;;;;;;;11.20;7.50;;;;;;;11.88;42.01;101480.98;106997;1259;64901;-45
2023/05/11 05:47:40;;;;;;;8.60;6.80;;;;;;;11.95;42.20;101479.64;105166;1257;60587;-45
2023/05/11 05:50:08;;;;;;;11.20;7.10;;;;;;;12.01;41.66;101479.58;104834;1254;60464;-45
2023/05/11 05:52:35;;;;;;;10.40;7.20;;;;;;;12.07;41.27;101479.53;105816;1259;67234;-44
2023/05/11 05:55:02;;;;;;;12.30;7.40;;;;;;;12.10;40.84;101480.22;105290;1259;63787;-44
2023/05/11 05:57:29;;;;;;;10.50;6.90;;;;;;;12.14;40.77;101480.67;105132;1254;66208;-44
2023/05/11 05:59:56;;;;;;;10.30;6.00;;;;;;;12.21;41.03;101477.35;105717;1257;60549;-47
2023/05/11 06:02:23;;;;;;;11.40;7.40;;;;;;;12.32;40.86;101474.66;105066;1257;60277;-46
2023/05/11 06:04:50;;;;;;;10.40;7.30;;;;;;;12.45;40.55;101480.98;107549;1254;66302;-45
2023/05/11 06:07:17;;;;;;;10.70;6.60;;;;;;;12.56;39.85;101480.70;104996;1257;63850;-46
2023/05/11 06:09:44;;;;;;;9.10;6.30;;;;;;;12.66;39.48;101477.77;104972;1254;65328;-46
2023/05/11 06:12:11;;;;;;;8.50;6.40;;;;;;;12.74;38.25;101473.45;104928;1257;60992;-47
2023/05/11 06:14:41;;;;;;;10.80;6.40;;;;;;;12.84;38.15;101475.40;104977;1257;60399;-46
2023/05/11 06:17:08;;;;;;;10.70;6.40;;;;;;;12.92;37.83;101474.80;104963;1254;67484;-46
2023/05/11 06:19:35;;;;;;;9.20;5.80;;;;;;;12.98;37.55;101475.41;104907;1254;63813;-45
2023/05/11 06:22:02;;;;;;;11.10;6.30;;;;;;;13.06;37.72;101479.04;104932;1260;65285;-46
2023/05/11 06:24:33;;;;;;;12.30;6.50;;;;;;;13.16;37.93;101480.08;105496;1257;61190;-45
2023/05/11 06:27:00;;;;;;;10.70;5.90;;;;;;;13.26;37.77;101478.33;105598;1257;60447;-47
2023/05/11 06:29:29;;;;;;;9.00;6.50;;;;;;;13.35;37.99;101478.21;109035;1251;67036;-45
2023/05/11 06:31:57;;;;;;;9.70;6.00;;;;;;;13.45;38.13;101474.80;106636;1257;70870;-45
2023/05/11 06:34:24;;;;;;;9.90;5.90;;;;;;;13.55;38.09;101474.81;106519;1257;66617;-45
2023/05/11 06:36:51;;;;;;;10.50;7.20;;;;;;;13.62;37.82;101475.67;104916;1259;60993;-50
2023/05/11 06:39:20;;;;;;;8.50;5.70;;;;;;;13.66;37.53;101473.59;105138;1257;60366;-46
2023/05/11 06:41:50;;;;;;;12.30;6.10;;;;;;;13.70;37.76;101472.45;104817;1252;67526;-46
2023/05/11 06:44:17;;;;;;;12.00;5.10;;;;;;;13.75;37.79;101473.61;108366;1259;62381;-46
2023/05/11 06:46:44;;;;;;;8.40;5.40;;;;;;;13.82;37.42;101471.16;104862;1257;66294;-47
2023/05/11 06:49:11;;;;;;;7.80;5.20;;;;;;;13.88;36.76;101470.81;104706;1257;60453;-47
2023/05/11 06:51:37;;;;;;;9.60;5.30;;;;;;;13.92;36.46;101471.06;104989;1256;60472;-46
2023/05/11 06:54:04;;;;;;;9.50;5.10;;;;;;;13.97;36.54;101471.79;104957;1252;66183;-45
2023/05/11 06:56:33;;;;;;;10.60;4.70;;;;;;;14.04;35.80;101468.75;104852;1257;71683;-46
2023/05/11 06:59:01;;;;;;;8.00;4.10;;;;;;;14.06;35.82;101469.80;105001;1257;65143;-46
2023/05/11 07:01:28;;;;;;;8.70;4.50;;;;;;;14.14;35.81;101472.78;105801;1257;60526;-45
2023/05/11 07:03:55;;;;;;;7.50;4.60;;;;;;;14.22;35.66;101471.95;104973;1257;60449;-45
2023/05/11 07:06:22;;;;;;;9.90;4.90;;;;;;;14.30;35.59;101470.98;105028;1256;67417;-46
2023/05/11 07:08:49;;;;;;;7.60;4.40;;;;;;;14.38;35.07;101468.63;104921;1257;62798;-46
2023/05/11 07:11:17;;;;;;;7.70;4.10;;;;;;;14.43;34.66;101469.06;105045;1257;66190;-47
2023/05/11 07:13:44;;;;;;;7.50;4.00;;;;;;;14.48;34.19;101467.98;106099;1251;60357;-47
2023/05/11 07:16:11;;;;;;;7.60;4.50;;;;;;;14.53;33.41;101467.95;105586;1253;60472;-47
2023/05/11 07:18:38;;;;;;;8.50;4.10;;;;;;;14.57;33.16;101468.70;104932;1254;67555;-47
2023/05/11 07:21:05;;;;;;;8.20;4.20;;;;;;;14.63;33.15;101466.06;105069;1257;62490;-48
2023/05/11 07:23:32;;;;;;;7.70;4.50;;;;;;;14.71;32.30;101470.30;104956;1257;66028;-48
2023/05/11 07:26:00;;;;;;;7.40;3.70;;;;;;;14.78;31.10;101466.02;105145;1255;61090;-46
2023/05/11 07:28:27;;;;;;;11.70;4.40;;;;;;;14.90;30.46;101464.67;105104;1254;60529;-46
2023/05/11 07:30:54;;;;;;;7.10;4.30;;;;;;;15.01;30.12;101466.59;105127;1254;67438;-46
2023/05/11 07:33:21;;;;;;;9.00;4.40;;;;;;;15.09;29.71;101462.27;107591;1253;64095;-46
2023/05/11 07:35:48;;;;;;;7.80;4.40;;;;;;;15.13;29.50;101458.91;105167;1256;66192;-46
2023/05/11 07:38:17;;;;;;;7.30;4.10;;;;;;;15.13;29.80;101456.77;104848;1259;60533;-46
2023/05/11 07:40:43;;;;;;;6.90;4.10;;;;;;;15.13;30.01;101456.04;105118;1254;60498;-46
2023/05/11 07:43:10;;;;;;;7.60;3.70;;;;;;;15.21;29.81;101456.15;104876;1251;67036;-47
2023/05/11 07:45:38;;;;;;;7.10;4.20;;;;;;;15.30;29.69;101455.41;105015;1258;62774;-47
2023/05/11 07:48:05;;;;;;;8.40;3.90;;;;;;;15.40;29.03;101455.09;109112;1256;65870;-46
2023/05/11 07:50:32;;;;;;;9.50;4.40;;;;;;;15.50;28.47;101453.21;106480;1260;60360;-52
2023/05/11 07:52:59;;;;;;;7.00;3.70;;;;;;;15.57;28.43;101449.63;105695;1257;60581;-45
2023/05/11 07:55:29;;;;;;;6.20;3.80;;;;;;;15.61;27.61;101445.02;105044;1251;69234;-46
2023/05/11 07:57:56;;;;;;;7.30;4.00;;;;;;;15.64;28.01;101443.74;105072;1257;64109;-46
2023/05/11 08:00:23;;;;;;;8.20;3.90;;;;;;;15.69;28.33;101440.29;104983;1257;64943;-46
2023/05/11 08:02:50;;;;;;;7.70;3.80;;;;;;;15.78;28.42;101439.89;104829;1259;60533;-44
2023/05/11 08:05:18;;;;;;;7.70;4.00;;;;;;;15.92;28.03;101438.01;104820;1259;60441;-44
2023/05/11 08:07:46;;;;;;;7.50;3.00;;;;;;;16.06;26.17;101433.08;105142;1255;67077;-46
2023/05/11 08:10:13;;;;;;;7.20;3.70;;;;;;;16.14;25.58;101430.98;105627;1260;63617;-46
2023/05/11 08:12:39;;;;;;;9.10;3.70;;;;;;;16.19;26.76;101435.16;105367;1260;67942;-47
2023/05/11 08:15:07;;;;;;;9.60;4.10;;;;;;;16.25;27.40;101435.46;104862;1263;60425;-44
2023/05/11 08:17:35;;;;;;;9.10;3.80;;;;;;;16.34;27.11;101433.68;105521;1257;60536;-43
2023/05/11 08:20:03;;;;;;;8.10;3.60;;;;;;;16.42;27.08;101432.56;104782;1260;66217;-44
2023/05/11 08:22:30;;;;;;;5.60;3.30;;;;;;;16.49;25.76;101428.80;104729;1257;64635;-44
2023/05/11 08:24:57;;;;;;;5.60;2.60;;;;;;;16.51;24.28;101427.49;109090;1254;66353;-44
2023/05/11 08:27:24;;;;;;;6.60;3.20;;;;;;;16.56;24.59;101429.05;105991;1258;61005;-44
2023/05/11 08:29:51;;;;;;;5.90;2.60;;;;;;;16.67;24.57;101426.64;105338;1251;60610;-44
2023/05/11 08:32:18;;;;;;;7.80;2.70;;;;;;;16.81;24.53;101428.21;105467;1257;66402;-47
2023/05/11 08:34:45;;;;;;;4.80;2.40;;;;;;;16.92;24.20;101424.80;105373;1254;63733;-46
2023/05/11 08:37:12;;;;;;;6.30;3.10;;;;;;;16.99;23.80;101429.14;104986;1255;66139;-46
2023/05/11 08:39:39;;;;;;;5.10;2.70;;;;;;;16.97;24.01;101432.66;104946;1256;62444;-43
2023/05/11 08:42:17;;;;;;;5.80;2.60;;;;;;;16.92;23.82;101429.78;104980;1257;60514;-44
2023/05/11 08:44:44;;;;;;;6.50;3.00;;;;;;;16.86;24.22;101431.89;104996;1257;67482;-47
2023/05/11 08:47:11;;;;;;;6.50;3.90;;;;;;;16.82;25.39;101433.80;105033;1257;65918;-44
2023/05/11 08:49:41;;;;;;;7.20;3.80;;;;;;;16.76;26.24;101439.52;104988;1254;66149;-44
2023/05/11 08:52:08;;;;;;;6.20;3.40;;;;;;;16.67;27.29;101439.22;107435;1256;60420;-44
2023/05/11 08:54:35;;;;;;;7.40;3.70;;;;;;;16.63;27.44;101437.87;107072;1251;60344;-44
2023/05/11 08:57:01;;;;;;;6.80;3.60;;;;;;;16.61;27.11;101436.61;105043;1254;67472;-44
2023/05/11 08:59:29;;;;;;;7.30;4.40;;;;;;;16.61;26.59;101438.90;105111;1260;63819;-45
2023/05/11 09:01:56;;;;;;;7.20;3.80;;;;;;;16.60;26.08;101437.38;108012;1254;66095;-44
2023/05/11 09:04:23;;;;;;;6.50;3.70;;;;;;;16.58;25.94;101437.55;106837;1254;60552;-46
2023/05/11 09:06:50;;;;;;;7.50;4.20;;;;;;;16.58;26.06;101433.68;105400;1257;60599;-44
2023/05/11 09:09:17;;;;;;;7.80;3.40;;;;;;;16.61;25.85;101433.58;105365;1259;67086;-46
2023/05/11 09:11:44;;;;;;;8.20;3.90;;;;;;;16.66;25.83;101431.55;105897;1258;63522;-44
2023/05/11 09:14:11;;;;;;;7.30;3.50;;;;;;;16.70;25.72;101429.02;105689;1257;66361;-44
2023/05/11 09:16:38;;;;;;;7.30;3.70;;;;;;;16.76;26.10;101425.20;105570;1259;61658;-45
2023/05/11 09:19:06;;;;;;;6.80;3.40;;;;;;;16.81;25.76;101424.19;105179;1259;60591;-45
2023/05/11 09:21:33;;;;;;;5.00;3.20;;;;;;;16.87;24.97;101426.17;105862;1259;66126;-45
2023/05/11 09:24:01;;;;;;;12.30;3.30;;;;;;;16.89;24.75;101420.66;105202;1257;63888;-45
2023/05/11 09:26:28;;;;;;;6.90;3.30;;;;;;;16.90;24.99;101419.82;105333;1257;65340;-46
2023/05/11 09:28:59;;;;;;;7.70;2.90;;;;;;;16.96;24.44;101413.86;107568;1254;60953;-49
2023/05/11 09:31:42;;;;;;;7.30;3.20;;;;;;;16.98;23.95;101415.98;105737;1253;273381;-48
2023/05/11 09:46:23;;;;;;;6.20;2.90;;;;;;;17.20;24.59;101403.05;102932;1287;603391;-46
2023/05/11 09:48:57;;;;;;;5.90;2.80;;;;;;;17.76;24.00;101395.98;104150;1266;109198;-47
2023/05/11 09:51:31;;;;;;;5.90;2.90;;;;;;;17.86;22.67;101387.42;107348;1271;59379;-46
2023/05/11 09:53:59;;;;;;;5.50;2.70;;;;;;;17.93;22.62;101388.50;104200;1270;65695;-47
2023/05/11 09:56:49;;;;;;;4.60;2.40;;;;;;;18.02;22.46;101382.58;104273;1272;62759;-46
2023/05/11 09:59:35;;;;;;;5.60;2.70;;;;;;;18.12;22.69;101375.02;104391;1271;75482;-46
2023/05/11 10:02:22;;;;;;;5.30;2.70;;;;;;;18.15;23.09;101377.91;104730;1268;59376;-46
2023/05/11 10:04:50;;;;;;;9.90;2.90;;;;;;;18.05;23.04;101375.83;104409;1267;59359;-46
2023/05/11 10:07:31;;;;;;;7.30;2.90;;;;;;;17.93;23.06;101373.29;104310;1265;64699;-44
2023/05/11 10:10:00;;;;;;;6.90;3.10;;;;;;;17.80;22.93;101378.35;104964;1265;63987;-46
2023/05/11 10:12:27;;;;;;;6.50;3.20;;;;;;;17.68;22.44;101382.14;104984;1270;66408;-44
2023/05/11 10:14:57;;;;;;;6.80;2.60;;;;;;;17.61;22.53;101379.77;105087;1266;59777;-46
2023/05/11 10:17:24;;;;;;;9.10;3.20;;;;;;;17.57;22.57;101381.59;107683;1266;59776;-45
2023/05/11 10:19:53;;;;;;;5.70;3.00;;;;;;;17.53;22.90;101378.44;104249;1271;66752;-44
2023/05/11 10:22:20;;;;;;;5.10;2.90;;;;;;;17.51;23.03;101382.23;105292;1266;63728;-49
2023/05/11 10:24:47;;;;;;;7.70;3.20;;;;;;;17.46;23.16;101379.41;104205;1271;64982;-47
2023/05/11 10:27:14;;;;;;;6.20;2.90;;;;;;;17.42;23.65;101377.31;104281;1266;59792;-48
2023/05/11 10:29:41;;;;;;;5.30;2.60;;;;;;;17.41;23.88;101378.13;104642;1270;59696;-47
2023/05/11 10:32:08;;;;;;;5.30;2.70;;;;;;;17.43;23.51;101374.92;105620;1269;66492;-45
2023/05/11 10:34:35;;;;;;;4.90;2.50;;;;;;;17.47;22.90;101373.85;104738;1267;63540;-46
2023/05/11 10:37:02;;;;;;;6.70;3.20;;;;;;;17.54;22.93;101369.66;105351;1269;66511;-45
2023/05/11 10:39:29;;;;;;;8.70;2.80;;;;;;;17.61;22.67;101363.29;104175;1271;59756;-44
2023/05/11 10:42:15;;;;;;;6.40;3.10;;;;;;;17.67;22.43;101367.44;104997;1270;59790;-47
2023/05/11 10:44:49;;;;;;;6.50;2.50;;;;;;;17.73;22.76;101361.30;104492;1270;66373;-48
2023/05/11 10:47:51;;;;;;;5.20;2.70;;;;;;;17.84;22.53;101358.16;104215;1266;63960;-47
2023/05/11 10:50:42;;;;;;;5.40;2.60;;;;;;;17.97;22.11;101357.42;104362;1269;66268;-46
2023/05/11 10:53:48;;;;;;;4.70;2.90;;;;;;;18.09;22.26;101352.44;104539;1270;60389;-46
2023/05/11 10:56:34;;;;;;;4.80;2.30;;;;;;;18.23;22.54;101351.90;104229;1265;59758;-46
2023/05/11 10:59:21;;;;;;;5.80;3.10;;;;;;;18.45;22.50;101351.60;104653;1263;66497;-46
2023/05/11 11:01:50;;;;;;;6.10;3.10;;;;;;;18.65;21.71;101349.60;104637;1264;63866;-47
2023/05/11 11:04:19;;;;;;;5.20;2.70;;;;;;;18.79;21.64;101347.14;106115;1265;66367;-46
2023/05/11 11:06:46;;;;;;;7.30;3.00;;;;;;;18.91;21.72;101341.06;104438;1263;59677;-49
2023/05/11 11:09:14;;;;;;;6.70;3.20;;;;;;;19.00;21.62;101340.10;105041;1263;59750;-46
2023/05/11 11:11:46;;;;;;;6.70;2.80;;;;;;;18.98;21.12;101347.65;104722;1262;66673;-46
2023/05/11 11:14:14;;;;;;;5.40;2.80;;;;;;;18.89;20.74;101346.35;104717;1268;62627;-46
2023/05/11 11:17:19;;;;;;;5.10;2.60;;;;;;;18.90;20.88;101343.43;105363;1266;66449;-46
2023/05/11 11:19:46;;;;;;;6.30;2.80;;;;;;;18.96;21.31;101342.34;104305;1268;59785;-46
2023/05/11 11:22:40;;;;;;;5.10;2.60;;;;;;;18.90;20.91;101346.09;104540;1268;59718;-45
2023/05/11 11:25:08;;;;;;;5.20;2.50;;;;;;;18.76;20.77;101345.09;104823;1267;66215;-44
2023/05/11 11:27:44;;;;;;;5.10;2.30;;;;;;;18.70;20.74;101344.09;105607;1266;63736;-45
2023/05/11 11:30:16;;;;;;;6.10;2.70;;;;;;;18.76;21.49;101342.84;104774;1266;66460;-45
2023/05/11 11:32:47;;;;;;;6.60;2.70;;;;;;;18.92;20.97;101344.13;104629;1269;59656;-44
2023/05/11 11:35:40;;;;;;;7.90;2.40;;;;;;;19.10;21.14;101338.25;104757;1263;60483;-45
2023/05/11 11:38:11;;;;;;;6.50;2.40;;;;;;;19.32;21.29;101334.86;104917;1268;65627;-45